Time;durP1;ratioP1;P1;durP2;ratioP2;P2;SDS_P1;SDS_P2;PMS_P1;PMS_P2;Temp;Humidity;BMP_temperature;BMP_pressure;BME280_temperature;BME280_humidity;BME280_pressure;Samples;Min_cycle;Max_cycle;Signal;HPM_P1;HPM_P2
2022/06/05 00:01:08;;;;;;;10.80;7.30;;;24.60;99.90;;;;;;5050618;28;20454;-59
2022/06/05 00:03:45;;;;;;;11.30;7.23;;;24.60;99.90;;;;;;5050064;28;20801;-59
2022/06/05 00:06:15;;;;;;;13.23;7.80;;;24.30;99.90;;;;;;5050423;28;20491;-59
2022/06/05 00:08:56;;;;;;;12.67;8.50;;;24.00;99.90;;;;;;5050326;28;21039;-59
2022/06/05 00:11:24;;;;;;;12.17;7.40;;;23.80;99.90;;;;;;5050236;28;20450;-58
2022/06/05 00:13:55;;;;;;;12.50;7.10;;;23.90;99.90;;;;;;5049865;28;20942;-59
2022/06/05 00:16:27;;;;;;;10.90;7.60;;;23.70;99.90;;;;;;5049900;28;20462;-59
2022/06/05 00:18:54;;;;;;;14.40;7.83;;;23.50;99.90;;;;;;5049887;28;20519;-59
2022/06/05 00:21:21;;;;;;;12.50;7.10;;;23.60;99.90;;;;;;5050019;28;20457;-59
2022/06/05 00:23:50;;;;;;;10.70;7.50;;;23.60;99.90;;;;;;5049974;28;20465;-58
2022/06/05 00:26:25;;;;;;;10.07;7.63;;;23.70;99.90;;;;;;5050156;28;20839;-58
2022/06/05 00:29:03;;;;;;;11.30;8.30;;;23.70;99.90;;;;;;5049657;28;20542;-58
2022/06/05 00:32:02;;;;;;;10.63;7.80;;;23.70;99.90;;;;;;5049955;28;20495;-58
2022/06/05 00:34:29;;;;;;;13.20;8.37;;;23.70;99.90;;;;;;5049966;28;20513;-58
2022/06/05 00:37:20;;;;;;;13.90;8.20;;;23.80;99.90;;;;;;5049790;28;20485;-58
2022/06/05 00:39:54;;;;;;;11.47;8.10;;;23.80;99.90;;;;;;5049967;28;20901;-60
2022/06/05 00:42:25;;;;;;;15.30;8.00;;;23.70;99.90;;;;;;5049769;28;20454;-58
2022/06/05 00:44:55;;;;;;;9.23;8.23;;;23.60;99.90;;;;;;5049016;28;20997;-58
2022/06/05 00:47:26;;;;;;;9.17;7.87;;;23.70;99.90;;;;;;5049764;28;20450;-58
2022/06/05 00:49:57;;;;;;;9.73;7.53;;;23.80;99.90;;;;;;5049407;28;20511;-57
2022/06/05 00:52:27;;;;;;;9.30;7.43;;;23.90;99.90;;;;;;5049276;28;20449;-59
2022/06/05 00:54:54;;;;;;;9.80;8.10;;;23.90;99.90;;;;;;5049120;28;20475;-62
2022/06/05 00:57:22;;;;;;;10.50;7.57;;;23.80;99.90;;;;;;5049540;28;20550;-58
2022/06/05 00:59:51;;;;;;;10.90;7.17;;;23.90;99.90;;;;;;5049412;28;20478;-58
2022/06/05 01:02:19;;;;;;;11.67;8.47;;;24.00;99.90;;;;;;5049554;28;20484;-58
2022/06/05 01:04:51;;;;;;;10.40;7.90;;;23.90;99.90;;;;;;5049581;28;20460;-58
2022/06/05 01:07:19;;;;;;;10.73;8.10;;;23.90;99.90;;;;;;5049593;28;20446;-58
2022/06/05 01:09:49;;;;;;;12.90;7.50;;;23.90;99.90;;;;;;5049356;28;20524;-58
2022/06/05 01:12:34;;;;;;;12.27;7.67;;;23.80;99.90;;;;;;5049581;28;20993;-58
2022/06/05 01:15:11;;;;;;;10.50;7.30;;;23.90;99.90;;;;;;5049466;28;20450;-58
2022/06/05 01:17:46;;;;;;;12.57;8.03;;;23.90;99.90;;;;;;5049431;28;20532;-59
2022/06/05 01:20:23;;;;;;;12.77;8.83;;;23.90;99.90;;;;;;5049399;28;20580;-59
2022/06/05 01:23:17;;;;;;;11.67;7.93;;;23.90;99.90;;;;;;5049264;28;20829;-58
2022/06/05 01:25:56;;;;;;;10.23;7.37;;;24.00;99.90;;;;;;5049418;28;20453;-59
2022/06/05 01:28:26;;;;;;;11.83;7.13;;;23.90;99.90;;;;;;5049389;28;20519;-57
2022/06/05 01:30:59;;;;;;;10.33;8.20;;;23.90;99.90;;;;;;5049352;28;20457;-59
2022/06/05 01:33:28;;;;;;;10.10;7.43;;;23.90;99.90;;;;;;5049297;28;20446;-58
2022/06/05 01:36:05;;;;;;;9.50;7.83;;;23.80;99.90;;;;;;5049157;28;20450;-58
2022/06/05 01:38:42;;;;;;;11.13;7.93;;;23.80;99.90;;;;;;5048859;28;20567;-58
2022/06/05 01:41:15;;;;;;;8.20;6.83;;;23.70;99.90;;;;;;5049241;28;20497;-58
2022/06/05 01:43:48;;;;;;;8.90;7.03;;;23.70;99.90;;;;;;5048782;28;20494;-58
2022/06/05 01:46:18;;;;;;;10.93;8.10;;;23.70;99.90;;;;;;5049120;28;20468;-57
2022/06/05 01:48:53;;;;;;;11.80;7.80;;;23.70;99.90;;;;;;5049163;28;20556;-58
2022/06/05 01:51:26;;;;;;;9.83;7.63;;;23.70;99.90;;;;;;5049208;28;20476;-58
2022/06/05 01:53:55;;;;;;;11.67;7.63;;;23.80;99.90;;;;;;5048713;28;20457;-58
2022/06/05 01:56:28;;;;;;;12.43;7.60;;;23.70;99.90;;;;;;5048988;28;20450;-59
2022/06/05 01:59:02;;;;;;;9.00;7.27;;;23.70;99.90;;;;;;5048710;28;21035;-59
2022/06/05 02:01:34;;;;;;;10.90;7.97;;;23.70;99.90;;;;;;5048980;28;20864;-57
2022/06/05 02:04:07;;;;;;;8.80;7.90;;;23.70;99.90;;;;;;5048671;28;20507;-58
2022/06/05 02:06:38;;;;;;;13.10;8.40;;;23.70;99.90;;;;;;5052227;28;20454;-57
2022/06/05 02:09:11;;;;;;;10.03;8.40;;;23.80;99.90;;;;;;5052335;28;20461;-58
2022/06/05 02:11:39;;;;;;;12.43;8.70;;;23.70;99.90;;;;;;5052691;28;20564;-58
2022/06/05 02:14:09;;;;;;;12.53;8.30;;;23.60;99.90;;;;;;5052614;28;20511;-57
2022/06/05 02:16:38;;;;;;;12.17;8.77;;;23.60;99.90;;;;;;5052646;28;20462;-59
2022/06/05 02:19:08;;;;;;;13.43;8.80;;;23.60;99.90;;;;;;5052144;28;20489;-58
2022/06/05 02:21:37;;;;;;;13.43;8.03;;;23.60;99.90;;;;;;5052256;28;20460;-59
2022/06/05 02:24:05;;;;;;;12.70;8.67;;;23.50;99.90;;;;;;5052416;28;20481;-60
2022/06/05 02:26:32;;;;;;;10.93;7.57;;;23.50;99.90;;;;;;5052380;28;20458;-58
2022/06/05 02:29:04;;;;;;;15.37;8.20;;;23.50;99.90;;;;;;5052301;28;20500;-59
2022/06/05 02:31:40;;;;;;;16.00;8.97;;;23.50;99.90;;;;;;5052489;28;20442;-57
2022/06/05 02:34:17;;;;;;;14.40;7.80;;;23.50;99.90;;;;;;5051967;28;20456;-58
2022/06/05 02:36:53;;;;;;;9.87;8.17;;;23.60;99.90;;;;;;5052079;28;20450;-58
2022/06/05 02:39:31;;;;;;;11.90;8.30;;;23.50;99.90;;;;;;5052039;28;20500;-58
2022/06/05 02:42:06;;;;;;;12.77;8.73;;;23.40;99.90;;;;;;5052021;28;20454;-58
2022/06/05 02:44:43;;;;;;;9.63;8.30;;;23.30;99.90;;;;;;5051477;28;20489;-58
2022/06/05 02:47:22;;;;;;;13.00;8.37;;;23.30;99.90;;;;;;5051835;28;20449;-58
2022/06/05 02:49:55;;;;;;;10.23;7.87;;;23.30;99.90;;;;;;5051864;28;20481;-58
2022/06/05 02:52:24;;;;;;;13.90;8.40;;;23.40;99.90;;;;;;5051850;28;20865;-58
2022/06/05 02:54:56;;;;;;;13.40;9.10;;;23.30;99.90;;;;;;5051663;28;20515;-59
2022/06/05 02:57:24;;;;;;;11.30;9.10;;;23.20;99.90;;;;;;5051635;28;20992;-58
2022/06/05 02:59:52;;;;;;;11.90;9.10;;;23.30;99.90;;;;;;5051782;28;20462;-58
2022/06/05 03:05:04;;;;;;;14.17;9.57;;;23.30;99.90;;;;;;5051478;28;20449;-59
2022/06/05 03:07:31;;;;;;;11.73;8.50;;;23.10;99.90;;;;;;5051487;28;20508;-58
2022/06/05 03:09:58;;;;;;;11.93;9.83;;;23.00;99.90;;;;;;5051243;28;20527;-59
2022/06/05 03:12:25;;;;;;;10.80;8.97;;;23.00;99.90;;;;;;5051454;28;20458;-58
2022/06/05 03:14:57;;;;;;;12.53;9.80;;;23.00;99.90;;;;;;5051339;28;20450;-57
2022/06/05 03:17:24;;;;;;;14.00;8.50;;;22.90;99.90;;;;;;5051290;28;20462;-59
2022/06/05 03:19:51;;;;;;;14.13;10.70;;;22.90;99.90;;;;;;5051214;28;20481;-58
2022/06/05 03:22:18;;;;;;;11.47;9.20;;;22.90;99.90;;;;;;5051194;28;20457;-58
2022/06/05 03:24:45;;;;;;;11.90;9.53;;;23.00;99.90;;;;;;5051246;28;20865;-59
2022/06/05 03:27:13;;;;;;;12.40;8.77;;;22.90;99.90;;;;;;5051076;28;20458;-58
2022/06/05 03:29:40;;;;;;;14.23;9.40;;;22.60;99.90;;;;;;5051049;28;20565;-59
2022/06/05 03:32:08;;;;;;;10.03;9.03;;;22.50;99.90;;;;;;5050648;28;20454;-59
2022/06/05 03:34:35;;;;;;;11.20;9.23;;;22.40;99.90;;;;;;5050856;28;20457;-58
2022/06/05 03:37:04;;;;;;;10.20;9.10;;;22.30;99.90;;;;;;5051048;28;20450;-58
2022/06/05 03:39:31;;;;;;;12.30;9.90;;;22.30;99.90;;;;;;5050946;28;20493;-58
2022/06/05 03:41:59;;;;;;;12.90;10.77;;;22.30;99.90;;;;;;5050938;28;20450;-58
2022/06/05 03:44:26;;;;;;;13.70;9.27;;;22.20;99.90;;;;;;5050437;28;21068;-59
2022/06/05 03:46:53;;;;;;;14.53;9.50;;;22.30;99.90;;;;;;5050740;28;20465;-58
2022/06/05 03:49:22;;;;;;;13.50;9.17;;;22.60;99.90;;;;;;5050743;28;20495;-58
2022/06/05 03:51:49;;;;;;;14.67;8.67;;;22.80;99.90;;;;;;5050490;28;20785;-58
2022/06/05 03:54:16;;;;;;;16.10;9.33;;;22.90;99.90;;;;;;5050783;28;20519;-59
2022/06/05 03:56:43;;;;;;;12.00;8.70;;;23.10;99.90;;;;;;5050565;28;20456;-59
2022/06/05 03:59:10;;;;;;;12.37;11.07;;;23.20;99.90;;;;;;5050054;28;21036;-57
2022/06/05 04:01:37;;;;;;;10.77;9.67;;;23.20;99.90;;;;;;5050295;28;20529;-58
2022/06/05 04:04:04;;;;;;;14.60;9.77;;;23.30;99.90;;;;;;5050419;28;20446;-58
2022/06/05 04:06:33;;;;;;;12.87;9.10;;;23.30;99.90;;;;;;5050394;28;20453;-59
2022/06/05 04:09:04;;;;;;;12.90;9.10;;;23.30;99.90;;;;;;5050404;28;20466;-59
2022/06/05 04:11:33;;;;;;;11.20;9.10;;;23.30;99.90;;;;;;5050409;28;20984;-61
2022/06/05 04:14:00;;;;;;;14.13;10.00;;;23.40;99.90;;;;;;5050065;28;20457;-61
2022/06/05 04:16:30;;;;;;;13.27;9.97;;;23.60;99.90;;;;;;5050018;28;20454;-62
2022/06/05 04:18:59;;;;;;;11.97;9.33;;;23.50;99.90;;;;;;5049921;28;20490;-61
2022/06/05 04:21:29;;;;;;;12.40;9.07;;;23.50;99.90;;;;;;5050102;28;20596;-62
2022/06/05 04:23:58;;;;;;;14.10;9.50;;;23.60;99.90;;;;;;5050030;28;20911;-61
2022/06/05 04:26:31;;;;;;;12.13;10.20;;;23.70;99.90;;;;;;5049674;28;20507;-62
2022/06/05 04:28:58;;;;;;;16.13;9.77;;;23.80;99.90;;;;;;5049622;28;20470;-62
2022/06/05 04:31:27;;;;;;;13.73;9.10;;;23.90;99.90;;;;;;5049947;28;20515;-61
2022/06/05 04:33:56;;;;;;;11.17;8.43;;;24.00;99.90;;;;;;5050052;28;20511;-61
2022/06/05 04:36:23;;;;;;;10.97;8.33;;;24.10;99.90;;;;;;5049816;28;20542;-62
2022/06/05 04:38:50;;;;;;;13.37;8.43;;;24.20;99.90;;;;;;5049714;28;20548;-61
2022/06/05 04:41:19;;;;;;;12.43;9.80;;;24.20;99.90;;;;;;5049875;28;20504;-63
2022/06/05 04:43:47;;;;;;;11.00;7.40;;;24.30;99.90;;;;;;5049365;28;20500;-62
2022/06/05 04:46:14;;;;;;;10.37;8.07;;;24.30;99.90;;;;;;5050091;28;20877;-62
2022/06/05 04:48:42;;;;;;;15.17;9.00;;;24.30;99.90;;;;;;5049555;28;20478;-62
2022/06/05 04:51:12;;;;;;;14.03;10.03;;;24.40;99.90;;;;;;5049205;28;20454;-62
2022/06/05 04:53:40;;;;;;;13.83;9.60;;;24.50;99.90;;;;;;5049384;28;20453;-61
2022/06/05 04:56:09;;;;;;;13.70;9.60;;;24.60;99.90;;;;;;5049445;28;20473;-62
2022/06/05 04:58:37;;;;;;;12.40;9.67;;;24.70;99.90;;;;;;5049582;28;20489;-63
2022/06/05 05:01:11;;;;;;;12.93;8.63;;;24.70;99.90;;;;;;5049662;28;20507;-61
2022/06/05 05:03:38;;;;;;;11.57;9.07;;;24.70;99.90;;;;;;5049800;28;20492;-62
2022/06/05 05:06:05;;;;;;;17.50;12.20;;;24.80;99.90;;;;;;5049498;28;20453;-61
2022/06/05 05:08:33;;;;;;;17.07;9.90;;;24.90;99.90;;;;;;5049278;28;20539;-62
2022/06/05 05:11:00;;;;;;;16.70;9.37;;;24.90;99.90;;;;;;5049392;28;20974;-60
2022/06/05 05:13:27;;;;;;;11.00;9.90;;;25.00;99.90;;;;;;5049146;28;20595;-62
2022/06/05 05:15:56;;;;;;;11.27;9.80;;;25.10;99.90;;;;;;5049327;28;20449;-60
2022/06/05 05:18:24;;;;;;;14.90;9.73;;;25.10;99.90;;;;;;5049338;28;20527;-62
2022/06/05 05:20:51;;;;;;;12.63;8.73;;;25.20;99.90;;;;;;5049124;28;20473;-62
2022/06/05 05:23:19;;;;;;;13.23;9.43;;;25.20;99.90;;;;;;5049281;28;20494;-62
2022/06/05 05:25:47;;;;;;;10.60;8.40;;;25.40;99.90;;;;;;5049524;28;20449;-61
2022/06/05 05:28:15;;;;;;;10.37;8.83;;;25.40;99.90;;;;;;5048840;28;20446;-61
2022/06/05 05:30:45;;;;;;;11.53;9.67;;;25.50;99.90;;;;;;5049404;28;20473;-62
2022/06/05 05:33:14;;;;;;;15.43;9.20;;;25.60;99.90;;;;;;5048920;28;20537;-62
2022/06/05 05:35:41;;;;;;;13.17;10.00;;;25.70;99.90;;;;;;5049102;28;20457;-61
2022/06/05 05:38:08;;;;;;;11.13;8.60;;;25.80;99.90;;;;;;5049194;28;20450;-62
2022/06/05 05:43:34;;;;;;;12.33;9.13;;;25.80;99.90;;;;;;4990753;28;20968;-61
2022/06/05 05:46:01;;;;;;;13.67;11.50;;;25.80;99.90;;;;;;4991087;28;20448;-62
2022/06/05 05:48:30;;;;;;;15.43;9.67;;;25.80;99.90;;;;;;5017920;28;20462;-62
2022/06/05 05:50:57;;;;;;;12.37;10.40;;;25.90;99.90;;;;;;5053179;28;20453;-61
2022/06/05 05:53:24;;;;;;;10.10;8.93;;;25.80;99.90;;;;;;5053212;28;20450;-61
2022/06/05 05:55:51;;;;;;;11.63;9.27;;;25.90;99.90;;;;;;5053125;28;20911;-62
2022/06/05 05:58:18;;;;;;;12.83;10.30;;;26.00;99.90;;;;;;5052817;28;20462;-62
2022/06/05 06:00:45;;;;;;;11.00;9.90;;;26.30;99.90;;;;;;5052686;28;20473;-62
2022/06/05 06:03:12;;;;;;;15.20;10.50;;;26.40;99.90;;;;;;5052723;28;20826;-62
2022/06/05 06:05:40;;;;;;;16.33;11.20;;;26.30;99.90;;;;;;5052917;28;20824;-62
2022/06/05 06:08:08;;;;;;;14.70;11.00;;;26.40;99.90;;;;;;5052127;28;20919;-62
2022/06/05 06:10:35;;;;;;;14.53;12.00;;;26.40;99.90;;;;;;5052482;28;20454;-62
2022/06/05 06:13:02;;;;;;;15.50;10.80;;;26.70;99.90;;;;;;5052495;28;20456;-62
2022/06/05 06:15:29;;;;;;;12.57;11.27;;;26.80;99.90;;;;;;5052081;28;20460;-63
2022/06/05 06:17:56;;;;;;;15.17;10.93;;;27.00;99.90;;;;;;5052302;28;20528;-62
2022/06/05 06:20:23;;;;;;;12.17;10.27;;;27.00;99.90;;;;;;5052013;28;21001;-62
2022/06/05 06:22:52;;;;;;;13.23;10.10;;;27.30;99.90;;;;;;5052559;28;20839;-62
2022/06/05 06:25:19;;;;;;;12.87;10.83;;;27.30;99.90;;;;;;5051970;28;20519;-62
2022/06/05 06:27:46;;;;;;;13.37;11.23;;;27.20;99.90;;;;;;5051936;28;20474;-61
2022/06/05 06:30:13;;;;;;;14.60;10.83;;;27.30;99.90;;;;;;5052230;28;20533;-62
2022/06/05 06:32:40;;;;;;;16.43;11.10;;;27.40;99.90;;;;;;5052103;28;20477;-60
2022/06/05 06:35:08;;;;;;;11.60;10.40;;;27.60;99.90;;;;;;5051947;28;20454;-62
2022/06/05 06:37:35;;;;;;;13.43;10.33;;;27.70;99.90;;;;;;5052072;28;20477;-61
2022/06/05 06:40:04;;;;;;;12.93;11.40;;;27.60;99.90;;;;;;5052208;28;20847;-62
2022/06/05 06:42:31;;;;;;;15.70;10.87;;;27.60;99.90;;;;;;5051802;28;20949;-62
2022/06/05 06:44:58;;;;;;;13.20;11.47;;;27.70;99.90;;;;;;5051663;28;20485;-62
2022/06/05 06:47:25;;;;;;;12.40;10.63;;;27.80;99.90;;;;;;5051839;28;20819;-62
2022/06/05 06:49:52;;;;;;;12.80;10.80;;;28.00;99.90;;;;;;5051160;28;20470;-62
2022/06/05 06:52:19;;;;;;;15.80;10.70;;;28.00;99.90;;;;;;5051493;28;20453;-63
2022/06/05 06:54:48;;;;;;;14.87;10.07;;;28.00;99.90;;;;;;5051539;28;20462;-62
2022/06/05 06:57:17;;;;;;;13.60;11.33;;;27.90;99.90;;;;;;5051642;28;20456;-62
2022/06/05 06:59:44;;;;;;;16.30;11.13;;;27.90;99.90;;;;;;5051601;28;20493;-62
2022/06/05 07:02:11;;;;;;;11.80;10.07;;;27.90;99.90;;;;;;5051658;28;20475;-61
2022/06/05 07:04:38;;;;;;;18.53;10.63;;;28.10;99.90;;;;;;5051663;28;20977;-61
2022/06/05 07:07:05;;;;;;;11.77;10.67;;;28.20;99.90;;;;;;5051463;28;20450;-63
2022/06/05 07:09:33;;;;;;;15.10;10.43;;;28.40;99.90;;;;;;5051408;28;20535;-63
2022/06/05 07:12:00;;;;;;;11.33;10.20;;;28.50;99.90;;;;;;5051579;28;20505;-63
2022/06/05 07:14:28;;;;;;;12.50;10.90;;;28.40;99.90;;;;;;5051563;28;20457;-62
2022/06/05 07:16:55;;;;;;;12.67;10.43;;;28.40;99.90;;;;;;5051323;28;20500;-62
2022/06/05 07:19:23;;;;;;;11.37;10.13;;;28.30;99.90;;;;;;5051184;28;20493;-62
2022/06/05 07:21:50;;;;;;;10.80;9.77;;;28.40;99.90;;;;;;5051075;28;20449;-61
2022/06/05 07:24:17;;;;;;;11.60;9.20;;;28.40;99.90;;;;;;5051192;28;20445;-62
2022/06/05 07:26:44;;;;;;;9.40;8.50;;;28.50;99.90;;;;;;5051168;28;20457;-61
2022/06/05 07:29:12;;;;;;;10.00;9.00;;;28.50;99.90;;;;;;5050573;28;20481;-62
2022/06/05 07:31:40;;;;;;;11.27;9.80;;;28.50;99.90;;;;;;5051111;28;20925;-62
2022/06/05 07:34:09;;;;;;;12.10;9.97;;;28.50;99.90;;;;;;5050600;28;20454;-62
2022/06/05 07:36:36;;;;;;;12.63;9.53;;;28.50;99.90;;;;;;5050837;28;20805;-69
2022/06/05 07:39:04;;;;;;;10.57;9.30;;;28.60;99.90;;;;;;5050447;28;20535;-62
2022/06/05 07:41:34;;;;;;;12.83;9.00;;;28.70;99.90;;;;;;5050876;28;20457;-62
2022/06/05 07:44:01;;;;;;;10.80;8.80;;;28.90;99.90;;;;;;5050469;28;20489;-63
2022/06/05 07:46:29;;;;;;;9.40;8.40;;;28.90;99.90;;;;;;5050935;28;20453;-63
2022/06/05 07:48:58;;;;;;;10.07;8.97;;;29.00;99.90;;;;;;5050324;28;20515;-62
2022/06/05 07:54:30;;;;;;;9.80;8.43;;;29.30;99.90;;;;;;5050638;28;20440;-62
2022/06/05 07:57:00;;;;;;;9.90;8.77;;;29.50;99.90;;;;;;5050550;28;20450;-62
2022/06/05 07:59:30;;;;;;;13.60;10.03;;;29.70;99.90;;;;;;5050297;28;20520;-62
2022/06/05 08:01:57;;;;;;;12.40;9.60;;;29.80;99.90;;;;;;5049733;28;20458;-63
2022/06/05 08:04:26;;;;;;;15.43;9.10;;;29.90;99.90;;;;;;5050643;28;20544;-62
2022/06/05 08:06:53;;;;;;;10.03;8.10;;;30.10;99.90;;;;;;5050576;28;20938;-62
2022/06/05 08:09:20;;;;;;;9.23;8.23;;;30.30;99.90;;;;;;5050476;28;21044;-62
2022/06/05 08:11:47;;;;;;;8.00;6.23;;;30.30;99.90;;;;;;5050344;28;20473;-63
2022/06/05 08:14:15;;;;;;;10.40;8.00;;;30.40;99.90;;;;;;5050498;28;20453;-64
2022/06/05 08:16:43;;;;;;;8.77;6.73;;;30.30;99.90;;;;;;5050551;28;20458;-62
2022/06/05 08:19:11;;;;;;;11.93;8.57;;;30.40;99.90;;;;;;5050107;28;20498;-65
2022/06/05 08:21:40;;;;;;;9.10;8.10;;;30.50;99.90;;;;;;5049766;28;20545;-63
2022/06/05 08:24:08;;;;;;;11.33;7.10;;;30.50;99.90;;;;;;5049931;28;20855;-63
2022/06/05 08:26:35;;;;;;;8.80;8.00;;;30.60;99.90;;;;;;5049991;28;20453;-70
2022/06/05 08:29:02;;;;;;;12.93;8.27;;;30.70;99.90;;;;;;5049841;28;20556;-62
2022/06/05 08:31:29;;;;;;;8.23;6.53;;;30.80;99.90;;;;;;5050205;28;20492;-61
2022/06/05 08:33:57;;;;;;;13.63;7.40;;;30.70;99.90;;;;;;5050101;28;20523;-62
2022/06/05 08:36:26;;;;;;;11.57;7.73;;;30.80;99.90;;;;;;5049982;28;20549;-63
2022/06/05 08:41:57;;;;;;;9.60;7.30;;;31.00;99.90;;;;;;5050001;28;20440;-62
2022/06/05 08:44:36;;;;;;;9.13;6.47;;;31.10;99.90;;;;;;5049294;28;20490;-62
2022/06/05 08:47:09;;;;;;;8.00;6.00;;;31.10;99.90;;;;;;5049667;28;20508;-61
2022/06/05 08:49:45;;;;;;;8.80;6.37;;;31.10;99.30;;;;;;5049628;28;20701;-64
2022/06/05 08:52:23;;;;;;;7.97;6.87;;;31.00;99.90;;;;;;5049718;28;20453;-62
2022/06/05 08:54:58;;;;;;;7.23;5.97;;;31.00;99.90;;;;;;5049714;28;20454;-61
2022/06/05 08:57:30;;;;;;;11.20;6.90;;;30.90;99.00;;;;;;5049558;28;20470;-63
2022/06/05 09:00:04;;;;;;;6.80;5.73;;;30.80;99.60;;;;;;5049569;28;20622;-61
2022/06/05 09:02:43;;;;;;;8.63;6.33;;;30.70;99.90;;;;;;5049540;28;20502;-62
2022/06/05 09:05:18;;;;;;;9.73;6.90;;;30.80;99.70;;;;;;5049688;28;20453;-61
2022/06/05 09:07:47;;;;;;;10.57;5.67;;;30.90;99.30;;;;;;5049517;28;20476;-61
2022/06/05 09:10:22;;;;;;;8.27;4.70;;;31.00;99.30;;;;;;5049443;28;20446;-71
2022/06/05 09:12:53;;;;;;;8.33;5.03;;;30.90;97.40;;;;;;5049300;28;20456;-62
2022/06/05 09:15:26;;;;;;;7.17;5.47;;;30.70;96.40;;;;;;5053525;28;20837;-68
2022/06/05 09:17:57;;;;;;;8.50;5.00;;;30.60;96.20;;;;;;5053524;28;20525;-62
2022/06/05 09:20:32;;;;;;;6.73;5.30;;;30.50;95.50;;;;;;5053363;28;20879;-62
2022/06/05 09:23:02;;;;;;;7.60;4.90;;;30.80;96.10;;;;;;5053454;28;20445;-65
2022/06/05 09:25:46;;;;;;;9.70;5.83;;;30.80;95.50;;;;;;5053276;28;20454;-62
2022/06/05 09:28:46;;;;;;;9.20;4.63;;;30.90;94.50;;;;;;5053280;28;20477;-62
2022/06/05 09:31:29;;;;;;;7.13;5.17;;;30.90;94.60;;;;;;5039346;28;20485;-72
2022/06/05 09:34:01;;;;;;;8.80;5.63;;;31.10;94.50;;;;;;5053793;28;20537;-75
2022/06/05 09:36:31;;;;;;;10.83;5.13;;;31.40;94.20;;;;;;5053184;28;20446;-71
2022/06/05 09:39:07;;;;;;;7.90;4.90;;;31.70;92.40;;;;;;5053208;28;20944;-68
2022/06/05 09:41:50;;;;;;;7.20;5.20;;;32.00;92.20;;;;;;5053020;28;20538;-62
2022/06/05 09:44:28;;;;;;;7.70;5.07;;;31.60;92.10;;;;;;5052699;28;20481;-62
2022/06/05 09:47:09;;;;;;;5.90;4.60;;;31.50;92.80;;;;;;5053019;28;20473;-62
2022/06/05 09:49:39;;;;;;;9.13;5.00;;;31.80;92.00;;;;;;5052737;28;20523;-63
2022/06/05 09:52:13;;;;;;;5.77;4.20;;;32.00;91.50;;;;;;5052742;28;20980;-61
2022/06/05 09:54:45;;;;;;;6.87;4.40;;;32.20;92.30;;;;;;5052836;28;20499;-62
2022/06/05 10:00:30;;;;;;;9.27;5.53;;;32.40;87.00;;;;;;5052636;28;20476;-60
2022/06/05 10:03:01;;;;;;;8.37;4.40;;;32.30;88.20;;;;;;5052742;28;20848;-63
2022/06/05 10:05:30;;;;;;;15.70;5.10;;;32.00;87.50;;;;;;5052724;28;20502;-60
2022/06/05 10:08:04;;;;;;;6.57;4.90;;;31.70;87.80;;;;;;5052672;28;20929;-63
2022/06/05 10:10:37;;;;;;;6.50;3.97;;;31.90;86.20;;;;;;5052479;28;20465;-61
2022/06/05 10:13:16;;;;;;;7.07;4.33;;;32.00;84.70;;;;;;5052451;28;20462;-61
2022/06/05 10:15:51;;;;;;;7.07;4.20;;;32.00;84.60;;;;;;5052105;28;20953;-61
2022/06/05 10:18:25;;;;;;;6.20;4.90;;;31.90;87.10;;;;;;5052597;28;20519;-61
2022/06/05 10:20:57;;;;;;;6.20;4.40;;;32.20;85.70;;;;;;5052013;28;20485;-61
2022/06/05 10:23:45;;;;;;;9.90;4.87;;;32.20;85.10;;;;;;5051938;28;20484;-61
2022/06/05 10:26:27;;;;;;;7.80;4.10;;;32.40;81.80;;;;;;5050895;28;20458;-61
2022/06/05 10:29:10;;;;;;;9.23;4.30;;;32.70;81.30;;;;;;5051877;28;21051;-61
2022/06/05 10:31:41;;;;;;;6.73;4.37;;;32.70;81.40;;;;;;5051808;28;20517;-60
2022/06/05 10:34:16;;;;;;;6.70;5.03;;;32.50;81.80;;;;;;5052147;28;20450;-61
2022/06/05 10:36:54;;;;;;;6.03;4.50;;;32.20;81.70;;;;;;5052227;28;20450;-62
2022/06/05 10:39:27;;;;;;;8.10;4.33;;;32.40;83.90;;;;;;5052048;28;20458;-60
2022/06/05 10:42:23;;;;;;;6.77;5.13;;;32.70;83.40;;;;;;5052021;28;20845;-61
2022/06/05 10:45:06;;;;;;;7.87;4.67;;;33.10;82.30;;;;;;5051413;28;20551;-61
2022/06/05 10:47:42;;;;;;;6.10;4.63;;;33.20;80.40;;;;;;5051976;28;20454;-62
2022/06/05 10:50:18;;;;;;;9.10;5.27;;;33.40;78.10;;;;;;5051504;28;20469;-61
2022/06/05 10:52:53;;;;;;;7.10;5.00;;;33.70;77.50;;;;;;5051939;28;20454;-61
2022/06/05 10:55:34;;;;;;;9.73;5.03;;;33.70;77.00;;;;;;5051310;28;20530;-61
2022/06/05 10:58:12;;;;;;;8.43;4.60;;;33.70;78.50;;;;;;5051794;28;20501;-61
2022/06/05 11:01:04;;;;;;;7.50;4.70;;;33.90;78.00;;;;;;5051493;28;20520;-61
2022/06/05 11:03:48;;;;;;;8.03;4.50;;;34.20;74.60;;;;;;5051685;28;20470;-61
2022/06/05 11:06:29;;;;;;;8.30;4.77;;;34.10;73.90;;;;;;5051592;28;20527;-61
2022/06/05 11:09:11;;;;;;;5.30;4.30;;;34.20;75.30;;;;;;5051323;28;20958;-61
2022/06/05 11:14:40;;;;;;;8.33;4.20;;;34.60;70.20;;;;;;5051201;28;20445;-61
2022/06/05 11:17:24;;;;;;;6.33;3.80;;;34.20;70.60;;;;;;5051334;28;20454;-61
2022/06/05 11:19:59;;;;;;;8.40;4.40;;;34.20;69.50;;;;;;5051144;28;20478;-61
2022/06/05 11:22:30;;;;;;;6.40;3.50;;;34.40;68.30;;;;;;5051259;28;20446;-61
2022/06/05 11:25:10;;;;;;;4.60;3.57;;;34.60;67.70;;;;;;5051239;28;20545;-60
2022/06/05 11:27:48;;;;;;;7.93;3.80;;;34.70;65.80;;;;;;5050736;28;20549;-61
2022/06/05 11:30:21;;;;;;;6.17;3.90;;;34.70;65.80;;;;;;5050807;28;20534;-60
2022/06/05 11:32:58;;;;;;;5.80;3.57;;;34.80;65.70;;;;;;5050703;28;20508;-60
2022/06/05 11:35:36;;;;;;;5.27;3.10;;;35.00;65.40;;;;;;5050998;28;20865;-60
2022/06/05 11:38:18;;;;;;;5.10;2.50;;;35.20;61.70;;;;;;5050837;28;20473;-60
2022/06/05 11:40:50;;;;;;;5.00;3.03;;;35.40;60.10;;;;;;5050700;28;20602;-60
2022/06/05 11:43:30;;;;;;;7.47;3.00;;;35.70;62.10;;;;;;5050396;28;20454;-60
2022/06/05 11:46:05;;;;;;;8.13;3.20;;;36.10;61.90;;;;;;5050473;28;20454;-60
2022/06/05 11:48:39;;;;;;;7.93;3.10;;;36.40;59.90;;;;;;5050332;28;20504;-61
2022/06/05 11:51:14;;;;;;;10.07;3.57;;;36.60;58.90;;;;;;5050550;28;20852;-61
2022/06/05 11:53:48;;;;;;;5.73;3.03;;;36.30;55.90;;;;;;5050710;28;20471;-60
2022/06/05 11:56:32;;;;;;;7.80;3.20;;;36.40;57.00;;;;;;5050267;28;20798;-60
2022/06/05 11:59:10;;;;;;;4.63;1.60;;;36.50;56.60;;;;;;5050447;28;20470;-60
2022/06/05 12:01:43;;;;;;;5.77;1.93;;;36.50;51.20;;;;;;5050311;28;20486;-60
2022/06/05 12:04:21;;;;;;;5.40;2.03;;;36.10;50.20;;;;;;5050460;28;20469;-60
2022/06/05 12:06:51;;;;;;;4.33;1.90;;;35.50;51.40;;;;;;5050416;28;20495;-60
2022/06/05 12:09:21;;;;;;;4.50;2.43;;;35.20;53.70;;;;;;5049987;28;20502;-61
2022/06/05 12:11:55;;;;;;;10.83;2.20;;;35.00;53.60;;;;;;5050337;28;20503;-60
2022/06/05 12:14:26;;;;;;;4.90;2.37;;;34.70;52.90;;;;;;5049874;28;20458;-59
2022/06/05 12:17:04;;;;;;;5.93;2.40;;;34.60;53.00;;;;;;5050243;28;20450;-61
2022/06/05 12:19:45;;;;;;;5.07;2.00;;;34.90;54.00;;;;;;5050168;28;20465;-60
2022/06/05 12:22:20;;;;;;;7.00;2.20;;;35.10;52.80;;;;;;5049921;28;20576;-60
2022/06/05 12:24:52;;;;;;;4.77;1.90;;;35.10;53.40;;;;;;5050094;28;20449;-60
2022/06/05 12:27:20;;;;;;;5.70;2.07;;;35.50;53.10;;;;;;5049577;28;20541;-60
2022/06/05 12:29:52;;;;;;;5.03;2.17;;;35.90;52.10;;;;;;5050144;28;20565;-60
2022/06/05 12:32:29;;;;;;;4.47;2.37;;;36.20;51.30;;;;;;5049947;28;20449;-60
2022/06/05 12:35:03;;;;;;;4.90;2.23;;;36.20;52.10;;;;;;5050042;28;20480;-60
2022/06/05 12:37:37;;;;;;;4.63;2.60;;;36.40;52.20;;;;;;5049857;28;20453;-60
2022/06/05 12:40:14;;;;;;;5.40;2.23;;;36.50;52.90;;;;;;5050031;28;20477;-60
2022/06/05 12:42:47;;;;;;;6.07;2.17;;;36.50;53.70;;;;;;5049641;28;20454;-60
2022/06/05 12:45:21;;;;;;;4.30;2.27;;;36.60;51.40;;;;;;5049364;28;20489;-61
2022/06/05 12:47:59;;;;;;;6.03;2.60;;;36.70;51.00;;;;;;5049311;28;20546;-64
2022/06/05 12:50:41;;;;;;;5.90;3.00;;;36.50;51.40;;;;;;5049681;28;20457;-63
2022/06/05 12:53:18;;;;;;;5.03;2.30;;;36.80;52.10;;;;;;5049645;28;20450;-65
2022/06/05 12:55:53;;;;;;;5.13;2.70;;;37.20;52.00;;;;;;5049565;28;20519;-61
2022/06/05 12:58:28;;;;;;;3.93;2.27;;;37.60;50.60;;;;;;5049524;28;20474;-61
2022/06/05 13:01:01;;;;;;;6.70;1.90;;;37.80;49.60;;;;;;5049534;28;20826;-62
2022/06/05 13:03:36;;;;;;;9.60;2.20;;;38.00;48.40;;;;;;5049378;28;20561;-60
2022/06/05 13:06:13;;;;;;;4.40;1.77;;;38.00;48.10;;;;;;5049415;28;20489;-62
2022/06/05 13:08:45;;;;;;;5.93;1.90;;;37.80;48.70;;;;;;5049520;28;20465;-61
2022/06/05 13:11:19;;;;;;;4.73;1.93;;;37.60;49.10;;;;;;5049632;28;20453;-61
2022/06/05 13:13:59;;;;;;;7.27;2.30;;;37.60;48.80;;;;;;5049665;28;20922;-60
2022/06/05 13:16:36;;;;;;;5.57;2.37;;;37.80;48.70;;;;;;5049295;28;20511;-60
2022/06/05 13:19:21;;;;;;;6.13;1.83;;;37.80;47.30;;;;;;5049269;28;20474;-61